createdAt,value
2023-05-19T00:01:21.964Z,91.82
2023-05-19T00:03:54.538Z,91.34
2023-05-19T00:06:25.598Z,91.63
2023-05-19T00:09:02.669Z,92.45
2023-05-19T00:11:36.220Z,91.68
2023-05-19T00:14:08.232Z,91.62
2023-05-19T00:16:47.995Z,91.36
2023-05-19T00:19:18.890Z,91.86
2023-05-19T00:21:52.584Z,92.68
2023-05-19T00:24:22.591Z,92.53
2023-05-19T00:26:52.157Z,92.04
2023-05-19T00:29:21.729Z,92.69
2023-05-19T00:31:53.580Z,91.58
2023-05-19T00:34:26.561Z,92.11
2023-05-19T00:36:55.609Z,94.03
2023-05-19T00:39:25.124Z,94.59
2023-05-19T00:41:55.560Z,94.77
2023-05-19T00:44:26.643Z,95.00
2023-05-19T00:46:57.296Z,94.33
2023-05-19T00:49:33.948Z,92.59
2023-05-19T00:52:09.297Z,95.57
2023-05-19T00:54:38.398Z,95.82
2023-05-19T00:57:15.652Z,95.33
2023-05-19T00:59:51.598Z,94.54
2023-05-19T01:02:24.299Z,94.73
2023-05-19T01:04:56.519Z,94.65
2023-05-19T01:07:32.563Z,96.35
2023-05-19T01:10:07.073Z,95.06
2023-05-19T01:12:45.226Z,94.88
2023-05-19T01:15:23.865Z,95.00
2023-05-19T01:18:09.746Z,95.53
2023-05-19T01:20:46.981Z,96.14
2023-05-19T01:23:38.647Z,95.74
2023-05-19T01:26:56.939Z,96.04
2023-05-19T01:29:44.431Z,95.50
2023-05-19T01:32:17.264Z,95.08
2023-05-19T01:34:52.650Z,96.45
2023-05-19T01:37:24.753Z,97.24
2023-05-19T01:39:56.525Z,98.99
2023-05-19T01:42:28.004Z,96.43
2023-05-19T01:44:59.020Z,96.28
2023-05-19T01:47:36.805Z,96.52
2023-05-19T01:50:07.839Z,97.76
2023-05-19T01:52:38.539Z,98.25
2023-05-19T01:55:16.008Z,99.09
2023-05-19T01:58:00.618Z,98.51
2023-05-19T02:00:38.122Z,99.06
2023-05-19T02:03:20.193Z,98.77
2023-05-19T02:05:58.813Z,99.26
2023-05-19T02:08:34.242Z,98.78
2023-05-19T02:11:10.342Z,98.55
2023-05-19T02:13:45.982Z,98.60
2023-05-19T02:16:16.254Z,99.00
2023-05-19T02:18:55.700Z,99.58
2023-05-19T02:21:35.292Z,99.63
2023-05-19T02:24:09.488Z,99.83
2023-05-19T02:26:38.820Z,99.42
2023-05-19T02:29:15.393Z,98.84
2023-05-19T02:31:47.813Z,98.72
2023-05-19T02:34:23.238Z,96.86
2023-05-19T02:36:56.592Z,97.88
2023-05-19T02:39:29.318Z,99.90
2023-05-19T02:42:02.448Z,99.77
2023-05-19T02:44:30.584Z,100.00
2023-05-19T02:47:00.090Z,100.00
2023-05-19T02:49:40.021Z,100.00
2023-05-19T02:52:15.723Z,100.00
2023-05-19T02:54:48.468Z,100.00
2023-05-19T02:57:20.028Z,99.75
2023-05-19T03:00:01.106Z,100.00
2023-05-19T03:02:37.655Z,99.83
2023-05-19T03:05:12.672Z,100.00
2023-05-19T03:07:46.191Z,100.00
2023-05-19T03:10:19.151Z,100.00
2023-05-19T03:12:50.386Z,99.64
2023-05-19T03:15:23.089Z,99.10
2023-05-19T03:17:52.021Z,99.02
2023-05-19T03:20:31.787Z,98.72
2023-05-19T03:23:03.882Z,97.94
2023-05-19T03:25:34.856Z,98.06
2023-05-19T03:28:05.024Z,95.40
2023-05-19T03:30:47.822Z,97.31
2023-05-19T03:33:21.792Z,97.63
2023-05-19T03:35:53.966Z,96.30
2023-05-19T03:38:31.964Z,96.60
2023-05-19T03:41:08.281Z,96.22
2023-05-19T03:43:37.954Z,96.32
2023-05-19T03:46:14.118Z,95.41
2023-05-19T03:49:02.979Z,94.92
2023-05-19T03:52:04.458Z,94.55
2023-05-19T03:54:43.294Z,94.76
2023-05-19T03:57:14.764Z,95.48
2023-05-19T03:59:44.328Z,95.31
2023-05-19T04:02:12.670Z,95.74
2023-05-19T04:04:47.156Z,95.24
2023-05-19T04:07:19.201Z,95.27
2023-05-19T04:09:51.305Z,95.28
2023-05-19T04:12:20.071Z,92.24
2023-05-19T04:14:57.042Z,92.61
2023-05-19T04:17:33.182Z,93.34
2023-05-19T04:20:08.030Z,93.23
2023-05-19T04:22:37.953Z,92.42
2023-05-19T04:25:09.390Z,93.86
2023-05-19T04:27:39.019Z,93.13
2023-05-19T04:30:10.833Z,92.80
2023-05-19T04:32:41.513Z,93.30
2023-05-19T04:35:11.530Z,93.57
2023-05-19T04:37:46.998Z,93.99
2023-05-19T04:40:20.483Z,92.57
2023-05-19T04:42:59.692Z,91.70
2023-05-19T04:45:33.203Z,92.61
2023-05-19T04:48:06.625Z,93.21
2023-05-19T04:50:44.432Z,91.80
2023-05-19T04:53:20.329Z,91.62
2023-05-19T04:55:51.243Z,92.19
2023-05-19T04:58:22.373Z,91.92
2023-05-19T05:00:52.169Z,90.76
2023-05-19T05:03:22.981Z,90.53
2023-05-19T05:05:57.152Z,89.56
2023-05-19T05:08:32.173Z,89.89
2023-05-19T05:11:07.032Z,89.46
2023-05-19T05:13:40.463Z,88.00
2023-05-19T05:16:11.608Z,88.35
2023-05-19T05:18:44.863Z,89.71
2023-05-19T05:21:25.545Z,89.16
2023-05-19T05:24:06.777Z,87.81
2023-05-19T05:26:46.716Z,86.43
2023-05-19T05:29:20.340Z,86.47
2023-05-19T05:32:06.022Z,86.51
2023-05-19T05:34:46.287Z,85.29
2023-05-19T05:37:24.825Z,85.90
2023-05-19T05:40:10.533Z,84.36
2023-05-19T05:42:39.690Z,84.79
2023-05-19T05:45:10.027Z,84.21
2023-05-19T05:47:41.598Z,83.99
2023-05-19T05:50:14.074Z,83.82
2023-05-19T05:52:53.593Z,84.33
2023-05-19T05:55:35.282Z,85.06
2023-05-19T05:58:11.874Z,85.20
2023-05-19T06:00:43.478Z,84.35
2023-05-19T06:03:33.584Z,83.50
2023-05-19T06:06:10.686Z,84.43
2023-05-19T06:08:51.859Z,83.79
2023-05-19T06:11:39.736Z,83.66
2023-05-19T06:14:13.014Z,82.94
2023-05-19T06:17:20.192Z,83.00
2023-05-19T06:19:52.250Z,82.77
2023-05-19T06:22:26.777Z,81.48
2023-05-19T06:24:58.348Z,81.82
2023-05-19T06:27:37.726Z,80.73
2023-05-19T06:30:08.872Z,79.89
2023-05-19T06:32:54.780Z,79.75
2023-05-19T06:35:25.456Z,81.37
2023-05-19T06:37:55.844Z,80.59
2023-05-19T06:40:28.099Z,79.65
2023-05-19T06:43:06.927Z,78.92
2023-05-19T06:45:57.315Z,79.72
2023-05-19T06:48:29.047Z,80.14
2023-05-19T06:51:08.132Z,80.63
2023-05-19T06:53:36.894Z,80.13
2023-05-19T06:56:14.997Z,81.32
2023-05-19T06:58:50.964Z,81.83
2023-05-19T07:01:22.491Z,79.72
2023-05-19T07:04:05.941Z,79.71
2023-05-19T07:06:35.939Z,81.71
2023-05-19T07:09:12.578Z,82.07
2023-05-19T07:11:43.721Z,81.75
2023-05-19T07:14:20.870Z,81.05
2023-05-19T07:16:50.464Z,80.82
2023-05-19T07:19:20.689Z,81.65
2023-05-19T07:21:51.253Z,81.55
2023-05-19T07:24:30.830Z,81.60
2023-05-19T07:27:01.495Z,79.75
2023-05-19T07:29:46.071Z,78.75
2023-05-19T07:32:15.229Z,79.34
2023-05-19T07:34:54.042Z,78.36
2023-05-19T07:37:24.537Z,80.22
2023-05-19T07:39:52.909Z,79.88
2023-05-19T07:42:21.991Z,79.21
2023-05-19T07:44:52.093Z,79.47
2023-05-19T07:47:22.609Z,79.07
2023-05-19T07:49:52.849Z,79.50
2023-05-19T07:52:23.525Z,78.98
2023-05-19T07:55:00.496Z,79.54
2023-05-19T07:57:31.275Z,79.79
2023-05-19T08:00:13.594Z,77.80
2023-05-19T08:02:48.608Z,78.38
2023-05-19T08:05:19.489Z,78.59
2023-05-19T08:07:55.602Z,77.38
2023-05-19T08:10:23.656Z,77.29
2023-05-19T08:12:52.506Z,77.33
2023-05-19T08:15:25.526Z,76.59
2023-05-19T08:17:55.995Z,76.46
2023-05-19T08:20:33.212Z,76.36
2023-05-19T08:23:04.482Z,75.59
2023-05-19T08:25:33.959Z,74.83
2023-05-19T08:28:05.775Z,75.54
2023-05-19T08:30:48.715Z,75.52
2023-05-19T08:33:17.628Z,75.59
2023-05-19T08:35:54.852Z,76.12
2023-05-19T08:38:27.360Z,75.92
2023-05-19T08:40:58.340Z,75.31
2023-05-19T08:43:27.069Z,75.67
2023-05-19T08:46:01.563Z,76.58
2023-05-19T08:48:31.302Z,76.67
2023-05-19T08:51:07.459Z,76.46
2023-05-19T08:53:38.710Z,76.43
2023-05-19T08:56:15.678Z,76.77
2023-05-19T08:58:50.867Z,77.46
2023-05-19T09:01:26.780Z,77.29
2023-05-19T09:04:00.644Z,77.49
2023-05-19T09:06:32.728Z,77.08
2023-05-19T09:09:06.571Z,76.60
2023-05-19T09:11:38.059Z,76.12
2023-05-19T09:14:16.242Z,75.40
2023-05-19T09:16:58.675Z,74.32
2023-05-19T09:19:30.346Z,74.84
2023-05-19T09:22:04.817Z,74.71
2023-05-19T09:24:43.229Z,74.49
2023-05-19T09:27:17.400Z,73.67
2023-05-19T09:29:49.979Z,73.82
2023-05-19T09:32:28.541Z,73.47
2023-05-19T09:35:00.205Z,73.88
2023-05-19T09:37:30.114Z,72.32
2023-05-19T09:39:59.346Z,72.00
2023-05-19T09:42:31.168Z,72.83
2023-05-19T09:45:12.445Z,72.46
2023-05-19T09:47:43.956Z,72.72
2023-05-19T09:50:17.516Z,73.82
2023-05-19T09:52:46.196Z,71.60
2023-05-19T09:55:23.051Z,71.57
2023-05-19T09:57:55.248Z,70.92
2023-05-19T10:00:25.542Z,70.59
2023-05-19T10:03:11.980Z,70.25
2023-05-19T10:05:41.729Z,71.08
2023-05-19T10:08:15.939Z,71.27
2023-05-19T10:10:44.231Z,70.77
2023-05-19T10:13:19.450Z,70.16
2023-05-19T10:18:27.984Z,69.22
2023-05-19T10:21:06.086Z,68.71
2023-05-19T10:23:36.530Z,67.70
2023-05-19T10:26:08.661Z,67.95
2023-05-19T10:28:44.122Z,67.16
2023-05-19T10:31:20.222Z,67.86
2023-05-19T10:34:27.426Z,67.95
2023-05-19T10:37:08.254Z,69.66
2023-05-19T10:39:43.731Z,70.68
2023-05-19T10:42:20.030Z,71.26
2023-05-19T10:45:00.165Z,71.36
2023-05-19T10:47:29.244Z,71.60
2023-05-19T10:50:04.481Z,70.60
2023-05-19T10:52:43.085Z,70.87
2023-05-19T10:55:17.887Z,69.95
2023-05-19T10:58:00.453Z,69.07
2023-05-19T11:00:32.486Z,70.17
2023-05-19T11:09:31.142Z,67.90
2023-05-19T11:12:14.884Z,66.21
2023-05-19T11:14:50.833Z,64.90
2023-05-19T11:17:22.550Z,63.97
2023-05-19T11:20:08.234Z,63.45
2023-05-19T11:22:40.977Z,64.84
2023-05-19T11:25:20.354Z,66.69
2023-05-19T11:27:51.455Z,66.20
2023-05-19T11:30:24.188Z,64.92
2023-05-19T11:32:57.734Z,65.77
2023-05-19T11:35:29.591Z,67.19
2023-05-19T11:38:00.779Z,67.04
2023-05-19T11:40:50.436Z,67.98
2023-05-19T11:43:27.887Z,67.79
2023-05-19T11:46:06.409Z,68.13
2023-05-19T11:48:37.692Z,67.07
2023-05-19T11:51:19.607Z,65.91
2023-05-19T11:53:59.806Z,63.67
2023-05-19T11:56:47.075Z,63.79
2023-05-19T11:59:19.420Z,63.09
2023-05-19T12:01:50.377Z,64.28
2023-05-19T12:04:23.524Z,65.03
2023-05-19T12:06:55.527Z,65.49
2023-05-19T12:09:26.836Z,64.92
2023-05-19T12:12:05.439Z,63.95
2023-05-19T12:14:42.480Z,63.95
2023-05-19T12:17:21.916Z,65.12
2023-05-19T12:19:58.698Z,66.13
2023-05-19T12:22:35.285Z,67.12
2023-05-19T12:25:13.722Z,67.22
2023-05-19T12:28:04.027Z,66.50
2023-05-19T12:30:41.280Z,64.69
2023-05-19T12:33:19.761Z,62.05
2023-05-19T12:35:58.032Z,60.21
2023-05-19T12:38:34.422Z,59.15
2023-05-19T12:41:05.485Z,57.75
2023-05-19T12:43:43.634Z,56.03
2023-05-19T12:46:19.770Z,57.62
2023-05-19T12:48:52.075Z,56.98
2023-05-19T12:51:22.920Z,58.43
2023-05-19T12:53:57.722Z,57.74
2023-05-19T12:56:31.163Z,57.65
2023-05-19T12:59:09.386Z,55.96
2023-05-19T13:01:43.787Z,55.96
2023-05-19T13:04:15.516Z,57.45
2023-05-19T13:06:46.611Z,56.22
2023-05-19T13:09:23.358Z,54.78
2023-05-19T13:11:57.213Z,53.78
2023-05-19T13:14:31.339Z,53.76
2023-05-19T13:17:01.283Z,54.56
2023-05-19T13:19:30.527Z,56.29
2023-05-19T13:22:01.219Z,57.20
2023-05-19T13:24:42.769Z,58.06
2023-05-19T13:27:19.126Z,57.86
2023-05-19T13:30:03.677Z,57.80
2023-05-19T13:32:36.112Z,60.13
2023-05-19T13:35:06.926Z,61.37
2023-05-19T13:37:41.311Z,62.54
2023-05-19T13:40:24.055Z,60.43
2023-05-19T13:43:00.888Z,60.64
2023-05-19T13:45:39.556Z,58.49
2023-05-19T13:48:13.384Z,56.42
2023-05-19T13:50:49.928Z,55.64
2023-05-19T13:53:29.323Z,53.83
2023-05-19T13:56:00.485Z,53.21
2023-05-19T13:58:38.405Z,53.09
2023-05-19T14:01:18.703Z,54.01
2023-05-19T14:03:47.657Z,54.49
2023-05-19T14:06:23.730Z,55.98
2023-05-19T14:09:00.362Z,57.80
2023-05-19T14:11:29.636Z,57.54
2023-05-19T14:14:01.275Z,57.59
2023-05-19T14:16:39.610Z,58.45
2023-05-19T14:19:19.042Z,58.13
2023-05-19T14:21:52.903Z,57.78
2023-05-19T14:24:30.823Z,55.89
2023-05-19T14:27:01.706Z,54.45
2023-05-19T14:29:32.394Z,54.10
2023-05-19T14:32:05.843Z,53.33
2023-05-19T14:34:36.372Z,52.73
2023-05-19T14:37:19.239Z,51.79
2023-05-19T14:39:51.000Z,51.77
2023-05-19T14:42:29.092Z,50.65
2023-05-19T14:45:11.224Z,50.39
2023-05-19T14:47:50.627Z,49.43
2023-05-19T14:50:26.117Z,50.41
2023-05-19T14:52:58.588Z,51.44
2023-05-19T14:55:31.494Z,53.67
2023-05-19T14:58:19.970Z,54.09
2023-05-19T15:01:00.288Z,55.26
2023-05-19T15:03:49.394Z,56.88
2023-05-19T15:06:27.233Z,57.95
2023-05-19T15:09:07.342Z,57.90
2023-05-19T15:11:36.436Z,58.58
2023-05-19T15:14:09.980Z,59.01
2023-05-19T15:16:40.639Z,59.04
2023-05-19T15:19:25.098Z,57.02
2023-05-19T15:21:56.545Z,54.80
2023-05-19T15:24:33.903Z,53.05
2023-05-19T15:27:11.464Z,51.82
2023-05-19T15:29:45.336Z,51.87
2023-05-19T15:32:19.386Z,52.16
2023-05-19T15:34:52.374Z,54.69
2023-05-19T15:37:21.010Z,55.77
2023-05-19T15:39:58.040Z,56.15
2023-05-19T15:42:28.383Z,57.26
2023-05-19T15:44:58.843Z,58.22
2023-05-19T15:47:36.625Z,59.15
2023-05-19T15:50:14.319Z,59.33
2023-05-19T15:52:53.723Z,59.84
2023-05-19T15:55:37.656Z,60.69
2023-05-19T15:58:11.535Z,61.64
2023-05-19T16:00:45.517Z,61.89
2023-05-19T16:03:28.568Z,62.77
2023-05-19T16:06:04.536Z,63.10
2023-05-19T16:08:33.729Z,63.17
2023-05-19T16:11:07.734Z,63.64
2023-05-19T16:13:44.923Z,63.57
2023-05-19T16:16:15.734Z,63.42
2023-05-19T16:18:50.898Z,64.05
2023-05-19T16:21:29.050Z,64.40
2023-05-19T16:24:00.846Z,64.64
2023-05-19T16:26:31.048Z,64.87
2023-05-19T16:29:06.347Z,65.37
2023-05-19T16:31:43.582Z,65.67
2023-05-19T16:34:15.528Z,65.94
2023-05-19T16:37:03.518Z,66.27
2023-05-19T16:39:41.147Z,66.65
2023-05-19T16:42:14.944Z,67.25
2023-05-19T16:44:49.598Z,67.99
2023-05-19T16:47:19.996Z,68.91
2023-05-19T16:50:05.160Z,69.00
2023-05-19T16:52:52.703Z,70.35
2023-05-19T16:55:25.483Z,71.33
2023-05-19T16:58:03.573Z,71.74
2023-05-19T17:00:37.379Z,71.47
2023-05-19T17:03:08.595Z,71.68
2023-05-19T17:05:39.090Z,71.82
2023-05-19T17:08:26.031Z,69.53
2023-05-19T17:11:06.411Z,67.39
2023-05-19T17:13:39.357Z,65.02
2023-05-19T17:16:10.310Z,63.98
2023-05-19T17:18:46.677Z,63.44
2023-05-19T17:21:22.418Z,62.63
2023-05-19T17:24:01.309Z,62.08
2023-05-19T17:26:30.905Z,64.15
2023-05-19T17:29:00.360Z,65.92
2023-05-19T17:31:36.893Z,67.79
2023-05-19T17:34:09.108Z,68.50
2023-05-19T17:36:45.620Z,69.75
2023-05-19T17:39:34.243Z,70.69
2023-05-19T17:42:06.271Z,71.37
2023-05-19T17:44:37.311Z,72.29
2023-05-19T17:47:11.729Z,72.73
2023-05-19T17:49:47.743Z,73.16
2023-05-19T17:52:26.108Z,73.99
2023-05-19T17:55:10.348Z,74.25
2023-05-19T17:57:42.051Z,75.83
2023-05-19T18:00:18.653Z,75.94
2023-05-19T18:02:54.616Z,76.12
2023-05-19T18:05:38.133Z,76.48
2023-05-19T18:08:19.743Z,76.50
2023-05-19T18:10:55.528Z,76.77
2023-05-19T18:13:30.217Z,77.94
2023-05-19T18:16:02.324Z,78.13
2023-05-19T18:18:49.239Z,78.56
2023-05-19T18:21:30.470Z,79.48
2023-05-19T18:24:05.927Z,79.99
2023-05-19T18:26:45.250Z,80.58
2023-05-19T18:29:24.264Z,81.88
2023-05-19T18:32:10.028Z,82.06
2023-05-19T18:34:53.021Z,81.96
2023-05-19T18:37:24.234Z,82.62
2023-05-19T18:39:58.977Z,82.27
2023-05-19T18:42:36.417Z,82.15
2023-05-19T18:45:20.826Z,82.35
2023-05-19T18:47:57.589Z,82.96
2023-05-19T18:50:33.380Z,83.58
2023-05-19T18:53:15.930Z,84.18
2023-05-19T18:55:50.753Z,84.76
2023-05-19T18:58:23.290Z,85.13
2023-05-19T19:01:04.398Z,86.04
2023-05-19T19:03:36.947Z,86.89
2023-05-19T19:06:12.378Z,87.49
2023-05-19T19:08:56.693Z,87.15
2023-05-19T19:11:38.505Z,87.15
2023-05-19T19:14:18.336Z,87.26
2023-05-19T19:16:57.573Z,87.41
2023-05-19T19:19:34.209Z,87.27
2023-05-19T19:22:07.317Z,87.87
2023-05-19T19:24:44.863Z,87.65
2023-05-19T19:27:18.931Z,87.73
2023-05-19T19:30:12.122Z,87.66
2023-05-19T19:32:50.261Z,88.15
2023-05-19T19:35:29.417Z,88.14
2023-05-19T19:38:07.291Z,88.97
2023-05-19T19:40:44.617Z,89.38
2023-05-19T19:43:15.632Z,90.17
2023-05-19T19:45:55.983Z,90.23
2023-05-19T19:48:27.441Z,91.02
2023-05-19T19:51:06.322Z,91.37
2023-05-19T19:53:39.226Z,92.66
2023-05-19T19:56:25.559Z,92.77
2023-05-19T19:59:06.536Z,93.16
2023-05-19T20:01:45.499Z,92.96
2023-05-19T20:04:28.516Z,93.14
2023-05-19T20:06:59.583Z,93.50
2023-05-19T20:09:31.382Z,94.53
2023-05-19T20:12:11.088Z,94.35
2023-05-19T20:14:44.726Z,95.03
2023-05-19T20:17:20.474Z,95.29
2023-05-19T20:19:57.131Z,95.00
2023-05-19T20:22:28.281Z,95.24
2023-05-19T20:25:06.485Z,95.50
2023-05-19T20:27:39.020Z,95.28
2023-05-19T20:30:22.854Z,95.30
2023-05-19T20:32:59.787Z,95.68
2023-05-19T20:35:41.571Z,96.31
2023-05-19T20:38:19.058Z,96.16
2023-05-19T20:40:49.909Z,95.98
2023-05-19T20:43:24.980Z,96.20
2023-05-19T20:45:56.617Z,96.63
2023-05-19T20:48:33.435Z,96.30
2023-05-19T20:51:03.686Z,97.18
2023-05-19T20:53:39.993Z,97.66
2023-05-19T20:56:12.866Z,97.38
2023-05-19T20:58:48.226Z,98.83
2023-05-19T21:01:19.583Z,100.00
2023-05-19T21:04:01.412Z,99.40
2023-05-19T21:06:39.331Z,99.86
2023-05-19T21:09:12.459Z,100.00
2023-05-19T21:11:45.919Z,100.00
2023-05-19T21:14:16.044Z,100.00
2023-05-19T21:16:51.013Z,100.00
2023-05-19T21:19:24.346Z,100.00
2023-05-19T21:21:57.062Z,100.00
2023-05-19T21:24:31.781Z,100.00
2023-05-19T21:27:03.049Z,100.00
2023-05-19T21:29:39.863Z,100.00
2023-05-19T21:32:11.151Z,100.00
2023-05-19T21:34:49.709Z,100.00
2023-05-19T21:37:29.417Z,100.00
2023-05-19T21:40:05.819Z,100.00
2023-05-19T21:42:42.668Z,100.00
2023-05-19T21:45:12.906Z,100.00
2023-05-19T21:47:42.783Z,100.00
2023-05-19T21:50:24.746Z,100.00
2023-05-19T21:53:05.481Z,100.00
2023-05-19T21:55:36.671Z,100.00
2023-05-19T21:58:05.267Z,100.00
2023-05-19T22:00:37.869Z,100.00
2023-05-19T22:03:09.812Z,100.00
2023-05-19T22:05:44.280Z,100.00
2023-05-19T22:08:13.143Z,100.00
2023-05-19T22:10:46.442Z,100.00
2023-05-19T22:13:21.567Z,100.00
2023-05-19T22:16:07.191Z,100.00
2023-05-19T22:18:51.964Z,100.00
2023-05-19T22:21:27.176Z,100.00
2023-05-19T22:24:02.543Z,100.00
2023-05-19T22:26:42.638Z,100.00
2023-05-19T22:29:17.231Z,100.00
2023-05-19T22:31:49.015Z,100.00
2023-05-19T22:34:21.565Z,100.00
2023-05-19T22:36:56.230Z,100.00
2023-05-19T22:39:25.062Z,100.00
2023-05-19T22:41:54.310Z,100.00
2023-05-19T22:44:25.281Z,100.00
2023-05-19T22:46:59.090Z,100.00
2023-05-19T22:49:30.022Z,100.00
2023-05-19T22:52:14.349Z,100.00
2023-05-19T22:54:51.011Z,100.00
2023-05-19T22:57:22.470Z,100.00
2023-05-19T22:59:53.678Z,100.00
2023-05-19T23:02:23.998Z,100.00
2023-05-19T23:04:54.692Z,100.00
2023-05-19T23:07:24.831Z,100.00
2023-05-19T23:09:53.601Z,100.00
2023-05-19T23:12:22.700Z,100.00
2023-05-19T23:14:53.677Z,100.00
2023-05-19T23:17:27.828Z,100.00
2023-05-19T23:19:58.799Z,100.00
2023-05-19T23:22:45.588Z,100.00
2023-05-19T23:25:16.791Z,100.00
2023-05-19T23:27:55.302Z,100.00
2023-05-19T23:30:31.811Z,100.00
2023-05-19T23:33:00.949Z,100.00
2023-05-19T23:35:33.118Z,100.00
2023-05-19T23:38:06.352Z,100.00
2023-05-19T23:40:37.981Z,100.00
2023-05-19T23:43:09.911Z,100.00
2023-05-19T23:45:40.492Z,100.00
2023-05-19T23:48:12.575Z,100.00
2023-05-19T23:50:41.201Z,100.00
2023-05-19T23:53:26.732Z,100.00
2023-05-19T23:56:00.666Z,100.00
2023-05-19T23:58:29.826Z,100.00
